Sparta, WI

11:15 AM CST on December 04, 2016 (GMT -0600)
Sparta-Fort McCoy

Weather History for KCMY - October, 2010

Change the Weather History Date:

Wednesday, October 20, 2010

  Actual Average Record
Temperature  
Mean Temperature 46 °F -  
Max Temperature 66 °F 57 °F 83 °F (1953)
Min Temperature 27 °F 31 °F 12 °F (1952)
Degree Days  
Heating Degree Days 18    
Moisture  
Dew Point 32 °F    
Average Humidity 67    
Maximum Humidity 98    
Minimum Humidity 28    
Precipitation  
Precipitation 0.00 in - - ()
Sea Level Pressure  
Sea Level Pressure 29.72 in    
Wind  
Wind Speed 3 mph (WNW)    
Max Wind Speed 21 mph    
Max Gust Speed 30 mph    
Visibility 10 miles    
Events      
Averages and records for this station are not official NWS values.
T = Trace of Precipitation, MM = Missing Value Source: NWS Daily Summary

Daily Weather History Graph

Daily Weather History Graph

Search for Another Location

Airport or City:

Trip Planner

Search our weather history database for the weather conditions in past years. The results will help you decide how hot, cold, wet, or windy it might be!

Date:

Astronomy

Oct. 20, 2010 Rise Set
Actual Time 7:23 AM CDT 6:10 PM CDT
Civil Twilight 6:54 AM CDT 6:40 PM CDT
Nautical Twilight 6:20 AM CDT 7:13 PM CDT
Astronomical Twilight 5:47 AM CDT 7:47 PM CDT
Moon 4:47 PM CDT (10/20) 5:02 AM CDT (10/20)
Length of Visible Light 11h 45m
Length of Day
10h 47m
Waxing Gibbous, 95% of the Moon is Illuminated
Oct 20
Waxing Gibbous
Oct 22
Full
Oct 30
Last Quarter
Nov 5
New
Nov 13
First Quarter

Hourly Weather History & Observations

Time (CDT) Temp. Windchill Dew Point Humidity Pressure Visibility Wind Dir Wind Speed Gust Speed Precip Events Conditions
12:15 AM 29.8 °F - 28.4 °F 94% 29.81 in 10.0 mi Calm Calm - N/A   Clear
12:35 AM 30.2 °F - 29.1 °F 96% 29.81 in 10.0 mi Calm Calm - N/A   Clear
12:55 AM 29.1 °F - 27.9 °F 95% 29.80 in 10.0 mi Calm Calm - N/A   Clear
1:15 AM 29.1 °F - 28.4 °F 97% 29.80 in 10.0 mi Calm Calm - N/A   Clear
1:35 AM 28.8 °F - 28.0 °F 97% 29.79 in 10.0 mi Calm Calm - N/A   Clear
2:15 AM 28.0 °F - 27.5 °F 98% 29.79 in 10.0 mi Calm Calm - N/A   Clear
2:35 AM 27.9 °F - 26.8 °F 96% 29.78 in 10.0 mi Calm Calm - N/A   Clear
2:55 AM 28.0 °F - 27.1 °F 96% 29.77 in 10.0 mi Calm Calm - N/A   Clear
3:15 AM 28.0 °F - 27.1 °F 96% 29.77 in 10.0 mi Calm Calm - N/A   Clear
3:35 AM 27.9 °F - 27.0 °F 96% 29.76 in 10.0 mi Calm Calm - N/A   Clear
3:55 AM 28.2 °F - 27.7 °F 98% 29.75 in 10.0 mi Calm Calm - N/A   Clear
4:15 AM 27.5 °F - 27.0 °F 98% 29.75 in 10.0 mi Calm Calm - N/A   Clear
4:35 AM 27.3 °F - 26.1 °F 95% 29.75 in 10.0 mi Calm Calm - N/A   Clear
4:55 AM 27.3 °F - 26.1 °F 95% 29.75 in 10.0 mi Calm Calm - N/A   Clear
5:15 AM 27.5 °F - 26.4 °F 96% 29.74 in 10.0 mi Calm Calm - N/A   Clear
5:35 AM 28.0 °F - 26.6 °F 94% 29.73 in 10.0 mi Calm Calm - N/A   Clear
5:55 AM 28.4 °F - 27.0 °F 94% 29.73 in 10.0 mi Calm Calm - N/A   Clear
6:15 AM 28.4 °F - 27.1 °F 95% 29.73 in 10.0 mi Calm Calm - N/A   Clear
6:35 AM 28.0 °F - 26.8 °F 95% 29.73 in 10.0 mi Calm Calm - N/A   Clear
6:55 AM 28.6 °F - 27.1 °F 94% 29.73 in 10.0 mi Calm Calm - N/A   Clear
7:35 AM 31.1 °F - 28.6 °F 90% 29.74 in 10.0 mi Calm Calm - N/A   Clear
7:55 AM 29.7 °F - 28.4 °F 95% 29.75 in 10.0 mi Calm Calm - N/A   Clear
8:15 AM 35.8 °F 33.0 °F 33.6 °F 92% 29.74 in 10.0 mi SW 3.5 mph - N/A   Clear
8:35 AM 43.7 °F 42.1 °F 35.1 °F 72% 29.73 in 10.0 mi WSW 3.5 mph - N/A   Clear
8:55 AM 47.5 °F - 35.6 °F 63% 29.73 in 10.0 mi WSW 6.9 mph - N/A   Clear
9:15 AM 48.2 °F - 35.4 °F 61% 29.73 in 10.0 mi West 9.2 mph - N/A   Clear
9:35 AM 48.7 °F - 35.8 °F 61% 29.74 in 10.0 mi WSW 8.1 mph - N/A   Clear
10:15 AM 50.7 °F - 35.8 °F 57% 29.73 in 10.0 mi WSW 8.1 mph 16.1 mph N/A   Clear
10:35 AM 51.4 °F - 35.6 °F 55% 29.73 in 10.0 mi West 10.4 mph - N/A   Clear
10:55 AM 52.5 °F - 36.0 °F 53% 29.73 in 10.0 mi West 8.1 mph - N/A   Clear
11:15 AM 54.1 °F - 35.8 °F 50% 29.72 in 10.0 mi WSW 9.2 mph - N/A   Clear
11:35 AM 54.7 °F - 35.6 °F 49% 29.71 in 10.0 mi West 8.1 mph - N/A   Mostly Cloudy
11:55 AM 57.9 °F - 35.2 °F 43% 29.70 in 10.0 mi WSW 8.1 mph 16.1 mph N/A   Scattered Clouds
12:15 PM 58.6 °F - 35.1 °F 41% 29.70 in 10.0 mi WSW 10.4 mph - N/A   Clear
12:35 PM 60.8 °F - 34.7 °F 38% 29.69 in 10.0 mi West 11.5 mph 17.3 mph N/A   Clear
12:55 PM 61.9 °F - 33.3 °F 34% 29.67 in 10.0 mi WSW 13.8 mph 19.6 mph N/A   Clear
1:15 PM 63.3 °F - 33.6 °F 33% 29.67 in 10.0 mi West 11.5 mph 18.4 mph N/A   Clear
1:35 PM 63.3 °F - 33.4 °F 33% 29.65 in 10.0 mi WSW 10.4 mph 16.1 mph N/A   Clear
2:15 PM 63.7 °F - 33.8 °F 33% 29.64 in 10.0 mi West 6.9 mph - N/A   Clear
2:35 PM 64.4 °F - 33.1 °F 31% 29.63 in 10.0 mi West 12.7 mph 19.6 mph N/A   Clear
2:55 PM 64.8 °F - 32.2 °F 30% 29.63 in 10.0 mi West 11.5 mph 23.0 mph N/A   Clear
3:15 PM 65.3 °F - 31.8 °F 29% 29.62 in 10.0 mi West 11.5 mph 18.4 mph N/A   Scattered Clouds
3:35 PM 66.0 °F - 31.8 °F 28% 29.61 in 10.0 mi West 9.2 mph 18.4 mph N/A   Mostly Cloudy
3:55 PM 65.5 °F - 32.0 °F 29% 29.60 in 10.0 mi West 8.1 mph 16.1 mph N/A   Mostly Cloudy
4:15 PM 64.9 °F - 32.5 °F 30% 29.60 in 10.0 mi WNW 5.8 mph - N/A   Mostly Cloudy
4:35 PM 62.6 °F - 34.7 °F 35% 29.62 in 10.0 mi North 8.1 mph - N/A   Mostly Cloudy
4:55 PM 59.7 °F - 36.3 °F 42% 29.63 in 10.0 mi North 11.5 mph 16.1 mph N/A   Scattered Clouds
5:15 PM 58.3 °F - 36.7 °F 45% 29.64 in 10.0 mi NNW 9.2 mph - N/A   Scattered Clouds
5:35 PM 58.1 °F - 36.7 °F 45% 29.65 in 10.0 mi NW 6.9 mph - N/A   Scattered Clouds
5:55 PM 57.7 °F - 36.9 °F 46% 29.66 in 10.0 mi NW 8.1 mph - N/A   Scattered Clouds
6:15 PM 56.8 °F - 36.7 °F 47% 29.67 in 10.0 mi NW 8.1 mph - N/A   Clear
6:35 PM 57.2 °F - 35.6 °F 44% 29.68 in 10.0 mi WNW 6.9 mph - N/A   Scattered Clouds
6:55 PM 56.7 °F - 35.1 °F 44% 29.69 in 10.0 mi WNW 10.4 mph - N/A   Scattered Clouds
7:15 PM 58.1 °F - 28.4 °F 32% 29.70 in 10.0 mi WNW 15.0 mph 24.2 mph N/A   Clear
7:35 PM 52.0 °F - 36.9 °F 56% 29.74 in 10.0 mi NNE 20.7 mph 29.9 mph N/A   Clear
7:55 PM 47.7 °F - 37.4 °F 68% 29.76 in 10.0 mi NNE 9.2 mph 20.7 mph N/A   Clear
8:15 PM 46.4 °F 42.9 °F 37.2 °F 70% 29.78 in 10.0 mi NNE 6.9 mph - N/A   Clear
8:35 PM 45.0 °F - 36.9 °F 73% 29.79 in 10.0 mi Calm Calm - N/A   Clear
8:55 PM 42.3 °F - 36.1 °F 79% 29.79 in 10.0 mi Calm Calm - N/A   Clear
9:15 PM 41.9 °F - 36.7 °F 82% 29.80 in 10.0 mi Calm Calm - N/A   Clear
9:35 PM 36.9 °F - 33.3 °F 87% 29.81 in 10.0 mi Calm Calm - N/A   Clear
9:55 PM 34.5 °F - 32.4 °F 92% 29.81 in 10.0 mi Calm Calm - N/A   Clear
10:15 PM 34.2 °F - 32.7 °F 94% 29.82 in 10.0 mi Calm Calm - N/A   Clear
10:35 PM 33.3 °F - 31.8 °F 94% 29.83 in 10.0 mi Calm Calm - N/A   Clear
10:55 PM 32.0 °F - 30.6 °F 94% 29.83 in 10.0 mi Calm Calm - N/A   Clear
11:55 PM 30.6 °F - 28.4 °F 92% 29.84 in 10.0 mi Calm Calm - N/A   Clear